createdAt,value
2022-10-13T00:01:26.475Z,21.48
2022-10-13T00:03:58.883Z,22.08
2022-10-13T00:06:31.369Z,20.67
2022-10-13T00:09:03.694Z,23.95
2022-10-13T00:11:36.653Z,20.20
2022-10-13T00:14:09.100Z,16.88
2022-10-13T00:16:41.432Z,20.33
2022-10-13T00:19:15.160Z,19.35
2022-10-13T00:21:47.624Z,15.05
2022-10-13T00:24:19.956Z,17.25
2022-10-13T00:26:52.935Z,19.60
2022-10-13T00:29:25.357Z,20.52
2022-10-13T00:31:57.676Z,17.48
2022-10-13T00:34:29.968Z,13.85
2022-10-13T00:37:02.254Z,15.32
2022-10-13T00:39:36.620Z,14.32
2022-10-13T00:42:12.768Z,17.02
2022-10-13T00:45:03.844Z,18.35
2022-10-13T00:47:42.596Z,16.60
2022-10-13T00:50:17.645Z,14.77
2022-10-13T00:52:54.154Z,15.68
2022-10-13T00:55:33.593Z,15.02
2022-10-13T00:58:10.015Z,15.65
2022-10-13T01:00:45.000Z,18.70
2022-10-13T01:03:20.931Z,16.80
2022-10-13T01:05:56.815Z,17.23
2022-10-13T01:08:29.630Z,16.55
2022-10-13T01:11:26.297Z,18.67
2022-10-13T01:14:07.278Z,14.55
2022-10-13T01:16:46.591Z,15.43
2022-10-13T01:19:37.775Z,13.52
2022-10-13T01:22:27.906Z,15.32
2022-10-13T01:25:08.413Z,16.52
2022-10-13T01:28:05.119Z,15.82
2022-10-13T01:30:45.461Z,18.85
2022-10-13T01:33:30.123Z,19.27
2022-10-13T01:36:15.666Z,18.80
2022-10-13T01:38:54.349Z,18.40
2022-10-13T01:41:35.190Z,17.08
2022-10-13T01:44:15.535Z,14.63
2022-10-13T01:46:56.938Z,18.35
2022-10-13T01:49:33.999Z,21.02
2022-10-13T01:52:09.371Z,16.55
2022-10-13T01:54:41.798Z,13.40
2022-10-13T01:57:30.922Z,14.63
2022-10-13T02:00:06.850Z,13.18
2022-10-13T02:02:56.711Z,15.43
2022-10-13T02:05:40.149Z,16.75
2022-10-13T02:08:18.775Z,13.30
2022-10-13T02:10:56.443Z,13.65
2022-10-13T02:13:33.035Z,14.38
2022-10-13T02:16:06.179Z,16.27
2022-10-13T02:18:39.830Z,17.05
2022-10-13T02:21:12.175Z,13.68
2022-10-13T02:23:45.428Z,16.90
2022-10-13T02:26:18.354Z,14.25
2022-10-13T02:28:50.921Z,16.10
2022-10-13T02:31:23.325Z,16.80
2022-10-13T02:33:56.334Z,22.02
2022-10-13T02:36:28.610Z,17.52
2022-10-13T02:39:01.131Z,19.88
2022-10-13T02:41:33.563Z,20.23
2022-10-13T02:44:06.698Z,19.02
2022-10-13T02:46:39.848Z,23.20
2022-10-13T02:49:13.062Z,23.35
2022-10-13T02:51:45.370Z,22.90
2022-10-13T02:54:17.840Z,27.83
2022-10-13T02:56:50.114Z,34.90
2022-10-13T02:59:22.421Z,37.00
2022-10-13T03:01:55.421Z,35.78
2022-10-13T03:04:29.247Z,35.55
2022-10-13T03:07:04.828Z,38.22
2022-10-13T03:09:37.110Z,34.13
2022-10-13T03:12:09.477Z,34.65
2022-10-13T03:14:42.967Z,38.17
2022-10-13T03:17:15.272Z,32.53
2022-10-13T03:19:48.264Z,35.28
2022-10-13T03:22:23.706Z,23.00
2022-10-13T03:24:57.596Z,30.70
2022-10-13T03:27:29.874Z,28.85
2022-10-13T03:30:02.271Z,25.83
2022-10-13T03:32:34.630Z,23.77
2022-10-13T03:35:08.442Z,27.60
2022-10-13T03:37:40.952Z,28.33
2022-10-13T03:40:13.280Z,20.77
2022-10-13T03:42:45.561Z,19.67
2022-10-13T03:45:21.249Z,19.30
2022-10-13T03:47:53.550Z,22.15
2022-10-13T03:50:26.562Z,24.65
2022-10-13T03:52:59.869Z,23.95
2022-10-13T03:55:32.205Z,22.05
2022-10-13T03:58:04.470Z,20.52
2022-10-13T04:00:36.890Z,23.02
2022-10-13T04:03:09.575Z,26.58
2022-10-13T04:05:42.966Z,23.17
2022-10-13T04:08:15.278Z,22.52
2022-10-13T04:10:47.637Z,18.77
2022-10-13T04:13:19.957Z,24.38
2022-10-13T04:16:02.207Z,18.90
2022-10-13T04:18:34.728Z,19.80
2022-10-13T04:21:09.575Z,21.13
2022-10-13T04:23:42.139Z,20.88
2022-10-13T04:26:16.992Z,20.95
2022-10-13T04:28:51.504Z,16.83
2022-10-13T04:31:25.584Z,16.60
2022-10-13T04:33:58.231Z,17.75
2022-10-13T04:36:31.323Z,18.15
2022-10-13T04:39:03.848Z,20.08
2022-10-13T04:41:38.587Z,22.58
2022-10-13T04:44:11.027Z,19.50
2022-10-13T04:46:43.377Z,20.27
2022-10-13T04:49:16.015Z,19.88
2022-10-13T04:51:49.023Z,21.00
2022-10-13T04:54:21.423Z,19.80
2022-10-13T04:56:53.712Z,26.70
2022-10-13T04:59:26.190Z,26.02
2022-10-13T05:01:58.592Z,25.38
2022-10-13T05:04:30.926Z,22.27
2022-10-13T05:07:17.554Z,22.67
2022-10-13T05:09:51.590Z,20.50
2022-10-13T05:12:23.969Z,24.48
2022-10-13T05:14:57.252Z,24.02
2022-10-13T05:17:35.059Z,18.45
2022-10-13T05:20:11.999Z,21.63
2022-10-13T05:22:45.077Z,22.05
2022-10-13T05:25:17.673Z,45.85
2022-10-13T05:27:50.050Z,28.17
2022-10-13T05:30:22.387Z,33.47
2022-10-13T05:32:54.690Z,42.17
2022-10-13T05:35:27.891Z,37.65
2022-10-13T05:38:00.833Z,46.20
2022-10-13T05:40:33.255Z,46.55
2022-10-13T05:43:05.684Z,43.47
2022-10-13T05:45:38.777Z,45.47
2022-10-13T05:48:11.046Z,41.63
2022-10-13T05:50:43.392Z,63.00
2022-10-13T05:53:16.819Z,52.17
2022-10-13T05:55:49.976Z,42.60
2022-10-13T05:58:23.087Z,40.97
2022-10-13T06:00:55.501Z,45.85
2022-10-13T06:03:28.383Z,42.38
2022-10-13T06:06:01.742Z,37.03
2022-10-13T06:08:35.112Z,45.10
2022-10-13T06:11:07.418Z,45.25
2022-10-13T06:13:39.726Z,39.58
2022-10-13T06:16:12.024Z,50.22
2022-10-13T06:18:44.331Z,37.05
2022-10-13T06:21:16.970Z,30.58
2022-10-13T06:23:49.925Z,25.75
2022-10-13T06:26:25.716Z,23.05
2022-10-13T06:28:59.765Z,26.75
2022-10-13T06:31:32.838Z,24.77
2022-10-13T06:34:05.116Z,23.67
2022-10-13T06:36:37.605Z,28.00
2022-10-13T06:39:10.714Z,17.17
2022-10-13T06:41:43.011Z,20.48
2022-10-13T06:44:15.469Z,15.05
2022-10-13T06:46:47.906Z,18.02
2022-10-13T06:49:20.662Z,17.75
2022-10-13T06:51:53.063Z,19.08
2022-10-13T06:54:26.096Z,20.42
2022-10-13T06:56:58.386Z,14.38
2022-10-13T06:59:30.734Z,14.65
2022-10-13T07:02:03.216Z,12.77
2022-10-13T07:04:35.531Z,22.10
2022-10-13T07:07:07.862Z,28.95
2022-10-13T07:09:40.801Z,28.20
2022-10-13T07:12:13.231Z,24.27
2022-10-13T07:14:45.531Z,26.05
2022-10-13T07:17:18.714Z,118.82
2022-10-13T07:19:55.773Z,37.47
2022-10-13T07:22:31.067Z,21.60
2022-10-13T07:25:04.652Z,22.48
2022-10-13T07:27:39.613Z,19.55
2022-10-13T07:30:12.414Z,21.23
2022-10-13T07:32:45.626Z,36.78
2022-10-13T07:35:18.038Z,22.63
2022-10-13T07:37:52.737Z,19.25
2022-10-13T07:40:26.046Z,48.28
2022-10-13T07:42:58.347Z,18.20
2022-10-13T07:45:30.980Z,17.48
2022-10-13T07:48:03.631Z,18.58
2022-10-13T07:50:36.435Z,17.05
2022-10-13T07:53:08.758Z,18.35
2022-10-13T07:55:41.735Z,23.90
2022-10-13T07:58:14.159Z,20.55
2022-10-13T08:00:55.623Z,22.70
2022-10-13T08:03:31.989Z,20.83
2022-10-13T08:06:05.299Z,19.42
2022-10-13T08:08:39.443Z,17.33
2022-10-13T08:11:16.490Z,45.78
2022-10-13T08:13:51.184Z,24.67
2022-10-13T08:16:27.034Z,18.35
2022-10-13T08:18:59.776Z,15.65
2022-10-13T08:24:24.474Z,35.72
2022-10-13T08:26:57.697Z,21.90
2022-10-13T08:29:30.062Z,21.02
2022-10-13T08:32:02.478Z,26.08
2022-10-13T08:34:36.167Z,19.25
2022-10-13T08:37:13.232Z,19.15
2022-10-13T08:39:45.567Z,17.98
2022-10-13T08:42:21.722Z,16.92
2022-10-13T08:47:54.192Z,18.05
2022-10-13T08:50:29.630Z,15.43
2022-10-13T08:53:04.526Z,14.93
2022-10-13T08:55:41.858Z,14.30
2022-10-13T08:58:19.602Z,13.98
2022-10-13T09:01:00.788Z,13.93
2022-10-13T09:03:43.344Z,15.63
2022-10-13T09:06:18.502Z,14.95
2022-10-13T09:08:53.907Z,12.63
2022-10-13T09:11:28.720Z,14.35
2022-10-13T09:14:04.956Z,14.68
2022-10-13T09:16:39.767Z,12.48
2022-10-13T09:19:21.903Z,11.95
2022-10-13T09:21:56.779Z,11.35
2022-10-13T09:24:29.068Z,13.00
2022-10-13T09:27:06.178Z,11.60
2022-10-13T09:29:41.531Z,14.75
2022-10-13T09:32:17.846Z,13.05
2022-10-13T09:34:51.108Z,18.08
2022-10-13T09:37:25.302Z,17.75
2022-10-13T09:40:02.383Z,16.52
2022-10-13T09:42:34.755Z,15.55
2022-10-13T09:45:15.449Z,18.73
2022-10-13T09:47:54.414Z,20.92
2022-10-13T09:50:29.094Z,22.95
2022-10-13T09:53:18.735Z,18.05
2022-10-13T09:56:14.899Z,19.42
2022-10-13T09:58:53.741Z,14.25
2022-10-13T10:01:34.272Z,19.77
2022-10-13T10:04:12.481Z,14.13
2022-10-13T10:06:45.593Z,14.45
2022-10-13T10:09:36.202Z,18.83
2022-10-13T10:12:15.263Z,12.38
2022-10-13T10:14:49.410Z,12.25
2022-10-13T10:17:29.692Z,13.15
2022-10-13T10:20:28.591Z,13.30
2022-10-13T10:23:05.907Z,17.60
2022-10-13T10:25:42.319Z,20.13
2022-10-13T10:28:40.430Z,17.33
2022-10-13T10:31:24.604Z,14.65
2022-10-13T10:34:07.100Z,16.95
2022-10-13T10:36:51.250Z,13.13
2022-10-13T10:39:31.750Z,11.98
2022-10-13T10:42:16.816Z,17.40
2022-10-13T10:44:53.048Z,13.80
2022-10-13T10:47:29.869Z,11.65
2022-10-13T10:50:06.650Z,41.63
2022-10-13T10:52:55.135Z,12.07
2022-10-13T10:55:33.234Z,23.00
2022-10-13T11:00:53.602Z,19.77
2022-10-13T11:03:39.347Z,19.70
2022-10-13T11:06:31.336Z,15.77
2022-10-13T11:09:05.843Z,20.77
2022-10-13T11:11:40.144Z,15.05
2022-10-13T11:17:08.871Z,17.55
2022-10-13T11:19:41.321Z,16.38
2022-10-13T11:22:20.033Z,16.17
2022-10-13T11:24:58.855Z,16.13
2022-10-13T11:27:40.205Z,21.52
2022-10-13T11:30:42.565Z,16.90
2022-10-13T11:33:50.866Z,15.82
2022-10-13T11:36:55.647Z,13.88
2022-10-13T11:40:09.381Z,14.43
2022-10-13T11:43:09.393Z,15.82
2022-10-13T11:45:59.639Z,16.05
2022-10-13T11:49:16.792Z,16.08
2022-10-13T11:52:18.143Z,15.10
2022-10-13T11:54:55.350Z,14.82
2022-10-13T11:57:28.672Z,16.50
2022-10-13T12:00:01.404Z,16.35
2022-10-13T12:02:49.766Z,16.40
2022-10-13T12:05:27.098Z,16.60
2022-10-13T12:08:03.919Z,13.50
2022-10-13T12:10:37.318Z,15.85
2022-10-13T12:13:20.783Z,15.18
2022-10-13T12:16:05.488Z,14.63
2022-10-13T12:18:40.208Z,16.50
2022-10-13T12:21:13.871Z,13.25
2022-10-13T12:23:46.823Z,12.55
2022-10-13T12:26:21.053Z,15.55
2022-10-13T12:28:55.527Z,13.18
2022-10-13T12:31:30.326Z,14.45
2022-10-13T12:34:02.601Z,13.82
2022-10-13T12:36:35.737Z,14.48
2022-10-13T12:39:13.953Z,12.70
2022-10-13T12:41:48.418Z,13.93
2022-10-13T12:44:24.337Z,14.82
2022-10-13T12:46:58.428Z,14.70
2022-10-13T12:49:33.402Z,14.98
2022-10-13T12:52:10.498Z,13.23
2022-10-13T12:54:48.414Z,19.30
2022-10-13T12:57:34.532Z,16.52
2022-10-13T13:00:21.411Z,16.27
2022-10-13T13:02:55.560Z,21.17
2022-10-13T13:05:33.417Z,19.90
2022-10-13T13:08:23.079Z,17.58
2022-10-13T13:10:55.923Z,68.72
2022-10-13T13:13:29.520Z,18.75
2022-10-13T13:16:16.515Z,15.63
2022-10-13T13:18:49.955Z,14.73
2022-10-13T13:21:24.512Z,20.27
2022-10-13T13:23:56.819Z,15.52
2022-10-13T13:26:29.174Z,15.98
2022-10-13T13:29:01.479Z,14.85
2022-10-13T13:31:34.486Z,14.25
2022-10-13T13:34:06.819Z,12.23
2022-10-13T13:36:39.334Z,13.35
2022-10-13T13:39:15.396Z,12.32
2022-10-13T13:41:48.235Z,11.38
2022-10-13T13:44:20.499Z,10.70
2022-10-13T13:46:54.500Z,9.88
2022-10-13T13:49:26.799Z,12.02
2022-10-13T13:51:59.143Z,12.55
2022-10-13T13:54:31.427Z,10.88
2022-10-13T13:57:04.750Z,18.40
2022-10-13T13:59:37.872Z,14.77
2022-10-13T14:02:14.612Z,12.68
2022-10-13T14:04:47.226Z,12.52
2022-10-13T14:07:20.011Z,12.50
2022-10-13T14:09:55.490Z,13.85
2022-10-13T14:12:32.439Z,9.63
2022-10-13T14:15:05.870Z,11.98
2022-10-13T14:17:38.875Z,12.55
2022-10-13T14:20:11.615Z,15.05
2022-10-13T14:22:44.283Z,14.10
2022-10-13T14:25:18.209Z,12.52
2022-10-13T14:27:51.371Z,12.52
2022-10-13T14:30:23.658Z,10.95
2022-10-13T14:32:56.875Z,10.93
2022-10-13T14:35:31.140Z,11.38
2022-10-13T14:38:03.470Z,14.90
2022-10-13T14:40:40.626Z,15.18
2022-10-13T14:43:12.977Z,11.40
2022-10-13T14:45:45.287Z,12.98
2022-10-13T14:48:24.600Z,17.42
2022-10-13T14:50:57.323Z,14.95
2022-10-13T14:53:32.674Z,15.82
2022-10-13T14:56:15.437Z,16.58
2022-10-13T14:58:57.472Z,15.77
2022-10-13T15:01:34.746Z,17.15
2022-10-13T15:04:08.050Z,23.08
2022-10-13T15:06:40.500Z,18.85
2022-10-13T15:09:12.926Z,11.75
2022-10-13T15:11:45.827Z,12.75
2022-10-13T15:14:18.125Z,12.50
2022-10-13T15:16:50.781Z,12.63
2022-10-13T15:19:23.802Z,11.20
2022-10-13T15:21:56.091Z,12.75
2022-10-13T15:24:28.428Z,14.68
2022-10-13T15:27:01.094Z,13.90
2022-10-13T15:29:35.202Z,16.77
2022-10-13T15:32:09.685Z,20.08
2022-10-13T15:34:42.636Z,21.65
2022-10-13T15:37:14.999Z,14.43
2022-10-13T15:39:47.826Z,13.38
2022-10-13T15:42:20.416Z,12.05
2022-10-13T15:45:10.355Z,12.82
2022-10-13T15:47:43.427Z,13.55
2022-10-13T15:50:16.523Z,11.70
2022-10-13T15:52:48.837Z,13.18
2022-10-13T15:55:21.313Z,16.42
2022-10-13T15:57:53.655Z,12.63
2022-10-13T16:00:26.207Z,13.38
2022-10-13T16:02:58.622Z,12.68
2022-10-13T16:05:31.716Z,16.83
2022-10-13T16:08:04.175Z,10.93
2022-10-13T16:10:38.366Z,15.38
2022-10-13T16:13:14.479Z,14.40
2022-10-13T16:15:56.627Z,11.88
2022-10-13T16:18:30.178Z,13.52
2022-10-13T16:21:08.716Z,13.43
2022-10-13T16:23:41.178Z,14.65
2022-10-13T16:26:14.468Z,12.25
2022-10-13T16:28:46.989Z,11.25
2022-10-13T16:31:19.389Z,11.65
2022-10-13T16:33:51.715Z,13.60
2022-10-13T16:36:24.682Z,10.73
2022-10-13T16:38:57.611Z,11.25
2022-10-13T16:41:29.914Z,13.93
2022-10-13T16:44:02.408Z,17.23
2022-10-13T16:46:34.718Z,14.80
2022-10-13T16:49:07.006Z,14.20
2022-10-13T16:51:40.068Z,12.70
2022-10-13T16:54:12.361Z,12.50
2022-10-13T16:56:44.679Z,14.10
2022-10-13T16:59:17.143Z,12.25
2022-10-13T17:01:49.473Z,11.02
2022-10-13T17:04:22.341Z,9.82
2022-10-13T17:06:55.410Z,8.82
2022-10-13T17:09:27.846Z,11.40
2022-10-13T17:12:01.464Z,11.75
2022-10-13T17:14:33.894Z,11.07
2022-10-13T17:17:06.251Z,12.95
2022-10-13T17:19:38.531Z,11.10
2022-10-13T17:22:11.511Z,11.32
2022-10-13T17:24:47.470Z,12.27
2022-10-13T17:27:20.005Z,10.40
2022-10-13T17:29:53.043Z,9.93
2022-10-13T17:32:25.388Z,11.13
2022-10-13T17:34:57.662Z,9.00
2022-10-13T17:37:30.646Z,11.15
2022-10-13T17:40:03.176Z,9.27
2022-10-13T17:42:35.465Z,9.82
2022-10-13T17:45:08.916Z,12.27
2022-10-13T17:47:47.468Z,13.85
2022-10-13T17:50:20.002Z,12.02
2022-10-13T17:52:52.947Z,12.98
2022-10-13T17:55:25.275Z,11.52
2022-10-13T17:57:57.566Z,8.38
2022-10-13T18:00:29.945Z,12.65
2022-10-13T18:03:02.249Z,12.35
2022-10-13T18:05:34.531Z,15.00
2022-10-13T18:08:08.585Z,23.13
2022-10-13T18:11:07.267Z,14.73
2022-10-13T18:13:36.490Z,34.03
2022-10-13T18:16:11.429Z,37.58
2022-10-13T18:18:44.675Z,28.58
2022-10-13T18:21:18.899Z,28.92
2022-10-13T18:24:00.602Z,34.97
2022-10-13T18:26:35.057Z,28.30
2022-10-13T18:29:09.007Z,24.95
2022-10-13T18:31:41.818Z,25.27
2022-10-13T18:34:16.281Z,23.45
2022-10-13T18:36:51.378Z,40.42
2022-10-13T18:39:26.176Z,51.28
2022-10-13T18:41:58.511Z,45.20
2022-10-13T18:44:39.315Z,43.35
2022-10-13T18:47:11.615Z,70.35
2022-10-13T18:49:43.966Z,106.68
2022-10-13T18:52:16.727Z,47.90
2022-10-13T18:54:50.389Z,47.95
2022-10-13T18:57:22.978Z,50.80
2022-10-13T18:59:55.503Z,67.32
2022-10-13T19:02:33.894Z,46.63
2022-10-13T19:05:06.474Z,41.42
2022-10-13T19:07:39.259Z,32.15
2022-10-13T19:10:12.293Z,16.52
2022-10-13T19:12:47.369Z,13.25
2022-10-13T19:15:19.676Z,11.65
2022-10-13T19:17:52.618Z,14.38
2022-10-13T19:20:24.997Z,10.82
2022-10-13T19:22:58.388Z,14.82
2022-10-13T19:25:31.354Z,17.15
2022-10-13T19:28:03.835Z,15.18
2022-10-13T19:30:36.238Z,11.10
2022-10-13T19:33:11.163Z,14.43
2022-10-13T19:35:53.288Z,15.30
2022-10-13T19:38:25.741Z,15.23
2022-10-13T19:41:03.012Z,16.25
2022-10-13T19:43:35.334Z,12.32
2022-10-13T19:46:08.442Z,13.07
2022-10-13T19:48:40.907Z,11.10
2022-10-13T19:51:13.866Z,10.77
2022-10-13T19:53:46.307Z,15.15
2022-10-13T19:56:22.220Z,16.88
2022-10-13T19:58:54.576Z,17.45
2022-10-13T20:01:27.918Z,12.10
2022-10-13T20:04:00.770Z,12.15
2022-10-13T20:06:33.478Z,13.13
2022-10-13T20:09:05.971Z,11.48
2022-10-13T20:11:38.939Z,13.13
2022-10-13T20:14:11.319Z,14.02
2022-10-13T20:16:43.949Z,19.17
2022-10-13T20:19:18.713Z,16.48
2022-10-13T20:21:52.175Z,17.55
2022-10-13T20:24:24.570Z,22.13
2022-10-13T20:26:58.943Z,14.63
2022-10-13T20:29:31.482Z,16.52
2022-10-13T20:32:04.119Z,17.23
2022-10-13T20:34:38.395Z,49.35
2022-10-13T20:37:10.804Z,32.75
2022-10-13T20:39:43.174Z,21.65
2022-10-13T20:42:16.156Z,20.75
2022-10-13T20:44:48.478Z,24.88
2022-10-13T20:47:20.881Z,22.05
2022-10-13T20:49:53.391Z,13.52
2022-10-13T20:52:25.632Z,17.00
2022-10-13T20:54:57.930Z,17.02
2022-10-13T20:57:31.376Z,16.75
2022-10-13T21:00:04.690Z,15.35
2022-10-13T21:02:37.136Z,16.75
2022-10-13T21:05:09.482Z,17.23
2022-10-13T21:07:42.714Z,34.15
2022-10-13T21:10:15.087Z,24.08
2022-10-13T21:12:48.031Z,23.30
2022-10-13T21:15:20.338Z,35.97
2022-10-13T21:17:52.619Z,35.17
2022-10-13T21:20:25.012Z,32.50
2022-10-13T21:22:57.331Z,44.10
2022-10-13T21:25:30.080Z,26.92
2022-10-13T21:28:06.002Z,28.10
2022-10-13T21:30:38.338Z,15.43
2022-10-13T21:33:10.675Z,13.20
2022-10-13T21:35:42.957Z,12.38
2022-10-13T21:38:15.216Z,16.75
2022-10-13T21:40:54.019Z,24.77
2022-10-13T21:43:27.173Z,23.75
2022-10-13T21:46:08.155Z,24.15
2022-10-13T21:48:45.865Z,19.65
2022-10-13T21:51:20.130Z,20.80
2022-10-13T21:53:54.119Z,20.98
2022-10-13T21:56:27.354Z,24.35
2022-10-13T21:59:01.034Z,29.95
2022-10-13T22:01:34.085Z,30.63
2022-10-13T22:04:07.511Z,27.17
2022-10-13T22:06:40.010Z,27.52
2022-10-13T22:09:12.957Z,29.85
2022-10-13T22:11:45.260Z,28.75
2022-10-13T22:14:18.276Z,26.08
2022-10-13T22:16:51.934Z,25.77
2022-10-13T22:19:24.269Z,24.30
2022-10-13T22:21:56.612Z,23.17
2022-10-13T22:24:31.960Z,24.02
2022-10-13T22:27:04.296Z,19.67
2022-10-13T22:29:37.445Z,24.50
2022-10-13T22:32:09.805Z,21.95
2022-10-13T22:34:42.317Z,21.23
2022-10-13T22:37:14.707Z,18.50
2022-10-13T22:39:47.063Z,19.15
2022-10-13T22:42:20.595Z,20.70
2022-10-13T22:44:53.581Z,26.95
2022-10-13T22:47:26.083Z,24.55
2022-10-13T22:49:58.401Z,25.90
2022-10-13T22:52:30.747Z,20.55
2022-10-13T22:55:03.203Z,19.80
2022-10-13T22:57:37.109Z,18.75
2022-10-13T23:00:12.696Z,19.02
2022-10-13T23:02:46.737Z,23.35
2022-10-13T23:05:19.036Z,22.10
2022-10-13T23:07:51.314Z,20.50
2022-10-13T23:10:23.989Z,21.45
2022-10-13T23:12:56.298Z,20.15
2022-10-13T23:15:33.104Z,20.98
2022-10-13T23:18:05.511Z,19.63
2022-10-13T23:20:39.280Z,22.10
2022-10-13T23:23:11.600Z,19.90
2022-10-13T23:25:43.896Z,22.13
2022-10-13T23:28:16.463Z,21.20
2022-10-13T23:30:49.400Z,23.08
2022-10-13T23:33:22.494Z,21.05
2022-10-13T23:35:54.986Z,23.83
2022-10-13T23:38:28.682Z,24.27
2022-10-13T23:41:05.719Z,24.05
2022-10-13T23:43:39.846Z,26.98
2022-10-13T23:46:12.841Z,24.75
2022-10-13T23:48:45.397Z,23.92
2022-10-13T23:51:20.029Z,22.13
2022-10-13T23:53:52.837Z,19.35
2022-10-13T23:56:25.327Z,21.58
2022-10-13T23:58:57.601Z,22.83
